Doresopolis, Brazil
Current Conditions -  °F | °C
As of 3:00 PM on Tuesday 27 Jan 2015 (Local Time) from SBAX Reporting Station
Light Rain Light Rain  
Wind Chill: 81°   Ceiling: 2000
Heat Index: 87°   Visibility: 6mi
Dew Point: 77°   Wind: 7mph
Humidity: 89%   Direction: 330°NNW
Pressure: 30.09"   Gusts: NA
Location:  20.29°S, 45.9°W
Report Text: SBAX 271700Z 33006KT 9999 -RA BKN020 27/25 Q1019
Loading
Personal Weather Stations






























Interactive Weather Map New forecast layout! Learn more

10-Day Weather Forecast

Advertisements
Track Severe Weather on mobile